sensor_id;sensor_type;location;lat;lon;timestamp;temperature;humidity
31765;DHT22;18338;53.240;8.798;2023-11-19T00:00:09;7.80;99.90
31765;DHT22;18338;53.240;8.798;2023-11-19T00:02:40;7.80;99.90
31765;DHT22;18338;53.240;8.798;2023-11-19T00:05:08;7.80;99.90
31765;DHT22;18338;53.240;8.798;2023-11-19T00:07:36;7.80;99.90
31765;DHT22;18338;53.240;8.798;2023-11-19T00:10:03;7.80;99.90
31765;DHT22;18338;53.240;8.798;2023-11-19T00:12:33;7.80;99.90
31765;DHT22;18338;53.240;8.798;2023-11-19T00:15:00;7.90;99.90
31765;DHT22;18338;53.240;8.798;2023-11-19T00:17:27;7.90;99.90
31765;DHT22;18338;53.240;8.798;2023-11-19T00:19:54;7.90;99.90
31765;DHT22;18338;53.240;8.798;2023-11-19T00:22:21;8.00;99.90
31765;DHT22;18338;53.240;8.798;2023-11-19T00:24:49;8.00;99.90
31765;DHT22;18338;53.240;8.798;2023-11-19T00:27:16;8.10;99.90
31765;DHT22;18338;53.240;8.798;2023-11-19T00:29:44;8.10;99.90
31765;DHT22;18338;53.240;8.798;2023-11-19T00:32:11;8.10;99.90
31765;DHT22;18338;53.240;8.798;2023-11-19T00:34:38;8.10;99.90
31765;DHT22;18338;53.240;8.798;2023-11-19T00:37:05;8.10;99.90
31765;DHT22;18338;53.240;8.798;2023-11-19T00:39:33;8.10;99.90
31765;DHT22;18338;53.240;8.798;2023-11-19T00:42:00;8.10;99.90
31765;DHT22;18338;53.240;8.798;2023-11-19T00:44:26;8.20;99.90
31765;DHT22;18338;53.240;8.798;2023-11-19T00:46:53;8.20;99.90
31765;DHT22;18338;53.240;8.798;2023-11-19T00:49:20;8.20;99.90
31765;DHT22;18338;53.240;8.798;2023-11-19T00:51:47;8.20;99.90
31765;DHT22;18338;53.240;8.798;2023-11-19T00:54:13;8.20;99.90
31765;DHT22;18338;53.240;8.798;2023-11-19T00:56:40;8.20;99.90
31765;DHT22;18338;53.240;8.798;2023-11-19T00:59:07;8.30;99.90
31765;DHT22;18338;53.240;8.798;2023-11-19T01:01:34;8.30;99.90
31765;DHT22;18338;53.240;8.798;2023-11-19T01:04:01;8.30;99.90
31765;DHT22;18338;53.240;8.798;2023-11-19T01:06:31;8.30;99.90
31765;DHT22;18338;53.240;8.798;2023-11-19T01:08:58;8.30;99.90
31765;DHT22;18338;53.240;8.798;2023-11-19T01:11:25;8.30;99.90
31765;DHT22;18338;53.240;8.798;2023-11-19T01:13:52;8.40;99.90
31765;DHT22;18338;53.240;8.798;2023-11-19T01:16:19;8.50;99.90
31765;DHT22;18338;53.240;8.798;2023-11-19T01:18:47;8.50;99.90
31765;DHT22;18338;53.240;8.798;2023-11-19T01:21:15;8.50;99.90
31765;DHT22;18338;53.240;8.798;2023-11-19T01:23:42;8.50;99.90
31765;DHT22;18338;53.240;8.798;2023-11-19T01:26:11;8.50;99.90
31765;DHT22;18338;53.240;8.798;2023-11-19T01:28:39;8.50;99.90
31765;DHT22;18338;53.240;8.798;2023-11-19T01:31:17;8.50;99.90
31765;DHT22;18338;53.240;8.798;2023-11-19T01:33:44;8.50;99.90
31765;DHT22;18338;53.240;8.798;2023-11-19T01:36:13;8.60;99.90
31765;DHT22;18338;53.240;8.798;2023-11-19T01:38:40;8.60;99.90
31765;DHT22;18338;53.240;8.798;2023-11-19T01:41:07;8.60;99.90
31765;DHT22;18338;53.240;8.798;2023-11-19T01:43:36;8.60;99.90
31765;DHT22;18338;53.240;8.798;2023-11-19T01:46:05;8.70;99.90
31765;DHT22;18338;53.240;8.798;2023-11-19T01:48:34;8.70;99.90
31765;DHT22;18338;53.240;8.798;2023-11-19T01:51:06;8.70;99.90
31765;DHT22;18338;53.240;8.798;2023-11-19T01:53:34;8.70;99.90
31765;DHT22;18338;53.240;8.798;2023-11-19T01:56:02;8.70;99.90
31765;DHT22;18338;53.240;8.798;2023-11-19T01:58:30;8.80;99.90
31765;DHT22;18338;53.240;8.798;2023-11-19T02:00:57;8.80;99.90
31765;DHT22;18338;53.240;8.798;2023-11-19T02:03:25;8.80;99.90
31765;DHT22;18338;53.240;8.798;2023-11-19T02:05:54;8.90;99.90
31765;DHT22;18338;53.240;8.798;2023-11-19T02:08:21;8.90;99.90
31765;DHT22;18338;53.240;8.798;2023-11-19T02:10:48;9.00;99.90
31765;DHT22;18338;53.240;8.798;2023-11-19T02:13:14;9.00;99.90
31765;DHT22;18338;53.240;8.798;2023-11-19T02:15:42;9.00;99.90
31765;DHT22;18338;53.240;8.798;2023-11-19T02:18:21;9.10;99.90
31765;DHT22;18338;53.240;8.798;2023-11-19T02:20:49;9.10;99.90
31765;DHT22;18338;53.240;8.798;2023-11-19T02:23:18;9.20;99.90
31765;DHT22;18338;53.240;8.798;2023-11-19T02:28:36;9.30;99.90
31765;DHT22;18338;53.240;8.798;2023-11-19T02:31:03;9.30;99.90
31765;DHT22;18338;53.240;8.798;2023-11-19T02:33:37;9.40;99.90
31765;DHT22;18338;53.240;8.798;2023-11-19T02:36:05;9.40;99.90
31765;DHT22;18338;53.240;8.798;2023-11-19T02:38:34;9.40;99.90
31765;DHT22;18338;53.240;8.798;2023-11-19T02:41:03;9.50;99.90
31765;DHT22;18338;53.240;8.798;2023-11-19T02:43:33;9.60;99.90
31765;DHT22;18338;53.240;8.798;2023-11-19T02:46:03;9.60;99.90
31765;DHT22;18338;53.240;8.798;2023-11-19T02:48:36;9.70;99.90
31765;DHT22;18338;53.240;8.798;2023-11-19T02:51:04;9.80;99.90
31765;DHT22;18338;53.240;8.798;2023-11-19T02:53:31;9.80;99.90
31765;DHT22;18338;53.240;8.798;2023-11-19T02:55:58;10.00;99.90
31765;DHT22;18338;53.240;8.798;2023-11-19T02:58:32;10.20;99.90
31765;DHT22;18338;53.240;8.798;2023-11-19T03:00:59;10.30;99.90
31765;DHT22;18338;53.240;8.798;2023-11-19T03:03:36;10.50;99.90
31765;DHT22;18338;53.240;8.798;2023-11-19T03:06:07;10.80;99.90
31765;DHT22;18338;53.240;8.798;2023-11-19T03:08:36;11.10;99.90
31765;DHT22;18338;53.240;8.798;2023-11-19T03:11:03;11.30;99.90
31765;DHT22;18338;53.240;8.798;2023-11-19T03:13:31;11.50;99.90
31765;DHT22;18338;53.240;8.798;2023-11-19T03:15:58;11.60;99.90
31765;DHT22;18338;53.240;8.798;2023-11-19T03:18:25;11.70;99.90
31765;DHT22;18338;53.240;8.798;2023-11-19T03:20:52;11.70;99.90
31765;DHT22;18338;53.240;8.798;2023-11-19T03:23:19;11.70;99.90
31765;DHT22;18338;53.240;8.798;2023-11-19T03:25:45;11.70;99.90
31765;DHT22;18338;53.240;8.798;2023-11-19T03:28:12;11.80;99.90
31765;DHT22;18338;53.240;8.798;2023-11-19T03:30:40;11.90;99.90
31765;DHT22;18338;53.240;8.798;2023-11-19T03:33:06;11.90;99.90
31765;DHT22;18338;53.240;8.798;2023-11-19T03:35:33;12.00;99.90
31765;DHT22;18338;53.240;8.798;2023-11-19T03:38:00;12.00;99.90
31765;DHT22;18338;53.240;8.798;2023-11-19T03:40:28;12.00;99.90
31765;DHT22;18338;53.240;8.798;2023-11-19T03:42:58;12.00;99.90
31765;DHT22;18338;53.240;8.798;2023-11-19T03:45:25;12.00;99.90
31765;DHT22;18338;53.240;8.798;2023-11-19T03:47:52;12.10;99.90
31765;DHT22;18338;53.240;8.798;2023-11-19T03:50:19;12.10;99.90
31765;DHT22;18338;53.240;8.798;2023-11-19T03:52:47;12.00;99.90
31765;DHT22;18338;53.240;8.798;2023-11-19T03:55:14;12.10;99.90
31765;DHT22;18338;53.240;8.798;2023-11-19T03:57:41;12.10;99.90
31765;DHT22;18338;53.240;8.798;2023-11-19T04:00:08;12.10;99.90
31765;DHT22;18338;53.240;8.798;2023-11-19T04:02:41;12.10;99.90
31765;DHT22;18338;53.240;8.798;2023-11-19T04:05:08;12.10;99.90
31765;DHT22;18338;53.240;8.798;2023-11-19T04:07:36;12.20;99.90
31765;DHT22;18338;53.240;8.798;2023-11-19T04:10:04;12.20;99.90
31765;DHT22;18338;53.240;8.798;2023-11-19T04:12:31;12.10;99.90
31765;DHT22;18338;53.240;8.798;2023-11-19T04:14:57;12.10;99.90
31765;DHT22;18338;53.240;8.798;2023-11-19T04:17:27;12.20;99.90
31765;DHT22;18338;53.240;8.798;2023-11-19T04:19:54;12.30;99.90
31765;DHT22;18338;53.240;8.798;2023-11-19T04:22:22;12.20;99.90
31765;DHT22;18338;53.240;8.798;2023-11-19T04:24:49;12.20;99.90
31765;DHT22;18338;53.240;8.798;2023-11-19T04:27:15;12.30;99.90
31765;DHT22;18338;53.240;8.798;2023-11-19T04:29:42;12.30;99.90
31765;DHT22;18338;53.240;8.798;2023-11-19T04:32:09;12.30;99.90
31765;DHT22;18338;53.240;8.798;2023-11-19T04:34:35;12.40;99.90
31765;DHT22;18338;53.240;8.798;2023-11-19T04:37:04;12.50;99.90
31765;DHT22;18338;53.240;8.798;2023-11-19T04:39:33;12.50;99.90
31765;DHT22;18338;53.240;8.798;2023-11-19T04:42:00;12.50;99.90
31765;DHT22;18338;53.240;8.798;2023-11-19T04:44:27;12.50;99.90
31765;DHT22;18338;53.240;8.798;2023-11-19T04:46:56;12.50;99.90
31765;DHT22;18338;53.240;8.798;2023-11-19T04:49:24;12.50;99.90
31765;DHT22;18338;53.240;8.798;2023-11-19T04:51:53;12.50;99.90
31765;DHT22;18338;53.240;8.798;2023-11-19T04:54:20;12.50;99.90
31765;DHT22;18338;53.240;8.798;2023-11-19T04:56:47;12.50;99.90
31765;DHT22;18338;53.240;8.798;2023-11-19T04:59:14;12.50;99.90
31765;DHT22;18338;53.240;8.798;2023-11-19T05:01:40;12.40;99.90
31765;DHT22;18338;53.240;8.798;2023-11-19T05:04:07;12.50;99.90
31765;DHT22;18338;53.240;8.798;2023-11-19T05:06:35;12.50;99.90
31765;DHT22;18338;53.240;8.798;2023-11-19T05:09:02;12.50;99.90
31765;DHT22;18338;53.240;8.798;2023-11-19T05:11:35;12.60;99.90
31765;DHT22;18338;53.240;8.798;2023-11-19T05:14:03;12.60;99.90
31765;DHT22;18338;53.240;8.798;2023-11-19T05:16:32;12.60;99.90
31765;DHT22;18338;53.240;8.798;2023-11-19T05:18:59;12.60;99.90
31765;DHT22;18338;53.240;8.798;2023-11-19T05:21:26;12.60;99.90
31765;DHT22;18338;53.240;8.798;2023-11-19T05:23:53;12.60;99.90
31765;DHT22;18338;53.240;8.798;2023-11-19T05:26:22;12.70;99.90
31765;DHT22;18338;53.240;8.798;2023-11-19T05:28:50;12.70;99.90
31765;DHT22;18338;53.240;8.798;2023-11-19T05:31:17;12.70;99.90
31765;DHT22;18338;53.240;8.798;2023-11-19T05:33:44;12.70;99.90
31765;DHT22;18338;53.240;8.798;2023-11-19T05:36:12;12.70;99.90
31765;DHT22;18338;53.240;8.798;2023-11-19T05:38:42;12.70;99.90
31765;DHT22;18338;53.240;8.798;2023-11-19T05:41:08;12.70;99.90
31765;DHT22;18338;53.240;8.798;2023-11-19T05:43:35;12.70;99.90
31765;DHT22;18338;53.240;8.798;2023-11-19T05:46:02;12.70;99.90
31765;DHT22;18338;53.240;8.798;2023-11-19T05:48:29;12.70;99.90
31765;DHT22;18338;53.240;8.798;2023-11-19T05:50:56;12.70;99.90
31765;DHT22;18338;53.240;8.798;2023-11-19T05:53:23;12.70;99.90
31765;DHT22;18338;53.240;8.798;2023-11-19T05:55:50;12.70;99.90
31765;DHT22;18338;53.240;8.798;2023-11-19T05:58:25;12.70;99.90
31765;DHT22;18338;53.240;8.798;2023-11-19T06:00:53;12.70;99.90
31765;DHT22;18338;53.240;8.798;2023-11-19T06:03:19;12.70;99.90
31765;DHT22;18338;53.240;8.798;2023-11-19T06:05:49;12.70;99.90
31765;DHT22;18338;53.240;8.798;2023-11-19T06:08:16;12.70;99.90
31765;DHT22;18338;53.240;8.798;2023-11-19T06:10:44;12.70;99.90
31765;DHT22;18338;53.240;8.798;2023-11-19T06:13:13;12.60;99.90
31765;DHT22;18338;53.240;8.798;2023-11-19T06:15:42;12.60;99.90
31765;DHT22;18338;53.240;8.798;2023-11-19T06:18:09;12.60;99.90
31765;DHT22;18338;53.240;8.798;2023-11-19T06:20:38;12.60;99.90
31765;DHT22;18338;53.240;8.798;2023-11-19T06:23:08;12.60;99.90
31765;DHT22;18338;53.240;8.798;2023-11-19T06:25:35;12.60;99.90
31765;DHT22;18338;53.240;8.798;2023-11-19T06:28:02;12.60;99.90
31765;DHT22;18338;53.240;8.798;2023-11-19T06:30:30;12.50;99.90
31765;DHT22;18338;53.240;8.798;2023-11-19T06:32:59;12.50;99.90
31765;DHT22;18338;53.240;8.798;2023-11-19T06:35:26;12.50;99.90
31765;DHT22;18338;53.240;8.798;2023-11-19T06:37:55;12.50;99.90
31765;DHT22;18338;53.240;8.798;2023-11-19T06:40:22;12.40;99.90
31765;DHT22;18338;53.240;8.798;2023-11-19T06:42:49;12.40;99.90
31765;DHT22;18338;53.240;8.798;2023-11-19T06:45:16;12.30;99.90
31765;DHT22;18338;53.240;8.798;2023-11-19T06:47:43;12.30;99.90
31765;DHT22;18338;53.240;8.798;2023-11-19T06:50:10;12.30;99.90
31765;DHT22;18338;53.240;8.798;2023-11-19T06:52:38;12.30;99.90
31765;DHT22;18338;53.240;8.798;2023-11-19T06:55:07;12.30;99.90
31765;DHT22;18338;53.240;8.798;2023-11-19T06:57:35;12.30;99.90
31765;DHT22;18338;53.240;8.798;2023-11-19T07:00:02;12.30;99.90
31765;DHT22;18338;53.240;8.798;2023-11-19T07:02:29;12.30;99.90
31765;DHT22;18338;53.240;8.798;2023-11-19T07:04:57;12.40;99.90
31765;DHT22;18338;53.240;8.798;2023-11-19T07:07:23;12.40;99.90
31765;DHT22;18338;53.240;8.798;2023-11-19T07:09:50;12.40;99.90
31765;DHT22;18338;53.240;8.798;2023-11-19T07:12:17;12.40;99.90
31765;DHT22;18338;53.240;8.798;2023-11-19T07:14:44;12.40;99.90
31765;DHT22;18338;53.240;8.798;2023-11-19T07:17:11;12.40;99.90
31765;DHT22;18338;53.240;8.798;2023-11-19T07:19:37;12.40;99.90
31765;DHT22;18338;53.240;8.798;2023-11-19T07:22:06;12.40;99.90
31765;DHT22;18338;53.240;8.798;2023-11-19T07:24:33;12.40;99.90
31765;DHT22;18338;53.240;8.798;2023-11-19T07:27:00;12.40;99.90
31765;DHT22;18338;53.240;8.798;2023-11-19T07:29:27;12.40;99.90
31765;DHT22;18338;53.240;8.798;2023-11-19T07:31:55;12.40;99.90
31765;DHT22;18338;53.240;8.798;2023-11-19T07:34:24;12.40;99.90
31765;DHT22;18338;53.240;8.798;2023-11-19T07:36:52;12.40;99.90
31765;DHT22;18338;53.240;8.798;2023-11-19T07:39:19;12.40;99.90
31765;DHT22;18338;53.240;8.798;2023-11-19T07:41:47;12.40;99.90
31765;DHT22;18338;53.240;8.798;2023-11-19T07:44:14;12.50;99.90
31765;DHT22;18338;53.240;8.798;2023-11-19T07:46:41;12.60;99.90
31765;DHT22;18338;53.240;8.798;2023-11-19T07:49:09;12.60;99.90
31765;DHT22;18338;53.240;8.798;2023-11-19T07:51:36;12.60;99.90
31765;DHT22;18338;53.240;8.798;2023-11-19T07:54:04;12.70;99.90
31765;DHT22;18338;53.240;8.798;2023-11-19T07:56:32;12.70;99.90
31765;DHT22;18338;53.240;8.798;2023-11-19T07:59:01;12.80;99.90
31765;DHT22;18338;53.240;8.798;2023-11-19T08:01:28;12.90;99.90
31765;DHT22;18338;53.240;8.798;2023-11-19T08:03:55;12.90;99.90
31765;DHT22;18338;53.240;8.798;2023-11-19T08:06:26;13.00;99.90
31765;DHT22;18338;53.240;8.798;2023-11-19T08:08:53;13.10;99.90
31765;DHT22;18338;53.240;8.798;2023-11-19T08:11:19;13.10;99.90
31765;DHT22;18338;53.240;8.798;2023-11-19T08:13:47;13.20;99.90
31765;DHT22;18338;53.240;8.798;2023-11-19T08:16:14;13.30;99.90
31765;DHT22;18338;53.240;8.798;2023-11-19T08:18:44;13.20;99.90
31765;DHT22;18338;53.240;8.798;2023-11-19T08:21:11;13.40;99.90
31765;DHT22;18338;53.240;8.798;2023-11-19T08:23:38;13.50;99.90
31765;DHT22;18338;53.240;8.798;2023-11-19T08:26:05;13.60;99.90
31765;DHT22;18338;53.240;8.798;2023-11-19T08:28:33;13.60;99.90
31765;DHT22;18338;53.240;8.798;2023-11-19T08:31:01;13.50;99.90
31765;DHT22;18338;53.240;8.798;2023-11-19T08:33:30;13.40;99.90
31765;DHT22;18338;53.240;8.798;2023-11-19T08:35:57;13.30;99.90
31765;DHT22;18338;53.240;8.798;2023-11-19T08:38:25;13.40;99.90
31765;DHT22;18338;53.240;8.798;2023-11-19T08:40:55;13.60;99.90
31765;DHT22;18338;53.240;8.798;2023-11-19T08:43:26;13.60;99.90
31765;DHT22;18338;53.240;8.798;2023-11-19T08:45:53;13.60;99.90
31765;DHT22;18338;53.240;8.798;2023-11-19T08:48:20;13.70;99.90
31765;DHT22;18338;53.240;8.798;2023-11-19T08:50:47;13.80;99.90
31765;DHT22;18338;53.240;8.798;2023-11-19T08:53:14;13.90;99.90
31765;DHT22;18338;53.240;8.798;2023-11-19T08:55:41;13.90;99.90
31765;DHT22;18338;53.240;8.798;2023-11-19T08:58:08;13.80;99.90
31765;DHT22;18338;53.240;8.798;2023-11-19T09:00:35;13.70;99.90
31765;DHT22;18338;53.240;8.798;2023-11-19T09:03:02;13.60;99.90
31765;DHT22;18338;53.240;8.798;2023-11-19T09:05:30;13.80;99.90
31765;DHT22;18338;53.240;8.798;2023-11-19T09:07:56;13.80;99.90
31765;DHT22;18338;53.240;8.798;2023-11-19T09:10:23;14.00;99.90
31765;DHT22;18338;53.240;8.798;2023-11-19T09:12:50;14.20;99.90
31765;DHT22;18338;53.240;8.798;2023-11-19T09:15:16;14.30;99.90
31765;DHT22;18338;53.240;8.798;2023-11-19T09:17:43;14.20;99.90
31765;DHT22;18338;53.240;8.798;2023-11-19T09:20:10;14.00;99.90
31765;DHT22;18338;53.240;8.798;2023-11-19T09:22:41;14.00;99.90
31765;DHT22;18338;53.240;8.798;2023-11-19T09:25:08;13.90;99.90
31765;DHT22;18338;53.240;8.798;2023-11-19T09:27:35;13.70;99.90
31765;DHT22;18338;53.240;8.798;2023-11-19T09:30:03;13.40;99.90
31765;DHT22;18338;53.240;8.798;2023-11-19T09:32:30;13.30;99.90
31765;DHT22;18338;53.240;8.798;2023-11-19T09:34:57;13.20;99.90
31765;DHT22;18338;53.240;8.798;2023-11-19T09:37:24;13.20;99.90
31765;DHT22;18338;53.240;8.798;2023-11-19T09:39:50;13.10;99.90
31765;DHT22;18338;53.240;8.798;2023-11-19T09:42:17;12.90;99.90
31765;DHT22;18338;53.240;8.798;2023-11-19T09:44:44;12.70;99.90
31765;DHT22;18338;53.240;8.798;2023-11-19T09:47:14;12.70;99.90
31765;DHT22;18338;53.240;8.798;2023-11-19T09:49:41;12.80;99.90
31765;DHT22;18338;53.240;8.798;2023-11-19T09:52:08;13.00;99.90
31765;DHT22;18338;53.240;8.798;2023-11-19T09:54:35;12.90;99.90
31765;DHT22;18338;53.240;8.798;2023-11-19T09:57:02;12.80;99.90
31765;DHT22;18338;53.240;8.798;2023-11-19T09:59:31;12.80;99.90
31765;DHT22;18338;53.240;8.798;2023-11-19T10:01:59;12.80;99.90
31765;DHT22;18338;53.240;8.798;2023-11-19T10:04:29;12.80;99.90
31765;DHT22;18338;53.240;8.798;2023-11-19T10:06:57;12.80;99.90
31765;DHT22;18338;53.240;8.798;2023-11-19T10:09:24;12.80;99.90
31765;DHT22;18338;53.240;8.798;2023-11-19T10:11:50;12.70;99.90
31765;DHT22;18338;53.240;8.798;2023-11-19T10:14:20;12.70;99.90
31765;DHT22;18338;53.240;8.798;2023-11-19T10:16:49;12.70;99.90
31765;DHT22;18338;53.240;8.798;2023-11-19T10:19:19;12.70;99.90
31765;DHT22;18338;53.240;8.798;2023-11-19T10:21:48;12.90;99.90
31765;DHT22;18338;53.240;8.798;2023-11-19T10:24:14;13.20;99.90
31765;DHT22;18338;53.240;8.798;2023-11-19T10:26:57;13.40;99.90
31765;DHT22;18338;53.240;8.798;2023-11-19T10:29:24;13.50;99.90
31765;DHT22;18338;53.240;8.798;2023-11-19T10:31:57;13.40;99.90
31765;DHT22;18338;53.240;8.798;2023-11-19T10:34:44;13.30;99.90
31765;DHT22;18338;53.240;8.798;2023-11-19T10:37:28;13.30;99.90
31765;DHT22;18338;53.240;8.798;2023-11-19T10:39:56;13.20;99.90
31765;DHT22;18338;53.240;8.798;2023-11-19T10:42:23;13.10;99.90
31765;DHT22;18338;53.240;8.798;2023-11-19T10:44:50;13.30;99.90
31765;DHT22;18338;53.240;8.798;2023-11-19T10:47:19;13.50;99.90
31765;DHT22;18338;53.240;8.798;2023-11-19T10:50:02;13.40;99.90
31765;DHT22;18338;53.240;8.798;2023-11-19T10:52:29;13.40;99.90
31765;DHT22;18338;53.240;8.798;2023-11-19T10:54:59;13.80;99.90
31765;DHT22;18338;53.240;8.798;2023-11-19T10:57:29;13.90;99.90
31765;DHT22;18338;53.240;8.798;2023-11-19T11:00:01;13.70;99.90
31765;DHT22;18338;53.240;8.798;2023-11-19T11:02:30;13.60;99.90
31765;DHT22;18338;53.240;8.798;2023-11-19T11:05:01;13.60;99.90
31765;DHT22;18338;53.240;8.798;2023-11-19T11:07:31;13.50;99.90
31765;DHT22;18338;53.240;8.798;2023-11-19T11:10:07;13.50;99.90
31765;DHT22;18338;53.240;8.798;2023-11-19T11:12:36;13.50;99.90
31765;DHT22;18338;53.240;8.798;2023-11-19T11:15:06;13.40;99.90
31765;DHT22;18338;53.240;8.798;2023-11-19T11:17:34;13.60;99.90
31765;DHT22;18338;53.240;8.798;2023-11-19T11:20:01;13.50;99.90
31765;DHT22;18338;53.240;8.798;2023-11-19T11:22:37;13.50;99.90
31765;DHT22;18338;53.240;8.798;2023-11-19T11:28:18;14.00;99.90
31765;DHT22;18338;53.240;8.798;2023-11-19T11:31:08;14.80;99.90
31765;DHT22;18338;53.240;8.798;2023-11-19T11:36:25;14.40;99.90
31765;DHT22;18338;53.240;8.798;2023-11-19T11:38:53;14.50;99.90
31765;DHT22;18338;53.240;8.798;2023-11-19T11:41:21;14.80;99.90
31765;DHT22;18338;53.240;8.798;2023-11-19T11:43:54;15.20;99.90
31765;DHT22;18338;53.240;8.798;2023-11-19T11:49:01;14.90;99.90
31765;DHT22;18338;53.240;8.798;2023-11-19T11:54:29;14.60;99.90
31765;DHT22;18338;53.240;8.798;2023-11-19T11:57:06;14.70;99.90
31765;DHT22;18338;53.240;8.798;2023-11-19T11:59:40;15.20;99.90
31765;DHT22;18338;53.240;8.798;2023-11-19T12:02:14;14.90;99.90
31765;DHT22;18338;53.240;8.798;2023-11-19T12:04:41;14.70;99.90
31765;DHT22;18338;53.240;8.798;2023-11-19T12:07:13;14.50;99.90
31765;DHT22;18338;53.240;8.798;2023-11-19T12:09:47;14.60;99.90
31765;DHT22;18338;53.240;8.798;2023-11-19T12:20:06;13.70;99.90
31765;DHT22;18338;53.240;8.798;2023-11-19T12:22:40;13.50;99.90
31765;DHT22;18338;53.240;8.798;2023-11-19T12:25:09;13.40;99.90
31765;DHT22;18338;53.240;8.798;2023-11-19T12:27:37;13.40;99.90
31765;DHT22;18338;53.240;8.798;2023-11-19T12:30:06;13.50;99.90
31765;DHT22;18338;53.240;8.798;2023-11-19T12:32:44;13.60;99.90
31765;DHT22;18338;53.240;8.798;2023-11-19T12:35:12;13.70;99.90
31765;DHT22;18338;53.240;8.798;2023-11-19T12:37:50;13.60;99.90
31765;DHT22;18338;53.240;8.798;2023-11-19T12:40:18;13.50;99.90
31765;DHT22;18338;53.240;8.798;2023-11-19T12:42:46;13.40;99.90
31765;DHT22;18338;53.240;8.798;2023-11-19T12:45:13;13.30;99.90
31765;DHT22;18338;53.240;8.798;2023-11-19T12:47:40;13.30;99.90
31765;DHT22;18338;53.240;8.798;2023-11-19T12:50:09;13.30;99.90
31765;DHT22;18338;53.240;8.798;2023-11-19T12:52:36;13.20;99.90
31765;DHT22;18338;53.240;8.798;2023-11-19T12:55:05;13.10;99.90
31765;DHT22;18338;53.240;8.798;2023-11-19T12:57:42;13.10;99.90
31765;DHT22;18338;53.240;8.798;2023-11-19T13:00:19;13.00;99.90
31765;DHT22;18338;53.240;8.798;2023-11-19T13:02:55;13.00;99.90
31765;DHT22;18338;53.240;8.798;2023-11-19T13:05:27;12.80;99.90
31765;DHT22;18338;53.240;8.798;2023-11-19T13:08:08;12.80;99.90
31765;DHT22;18338;53.240;8.798;2023-11-19T13:10:52;12.70;99.90
31765;DHT22;18338;53.240;8.798;2023-11-19T13:13:20;12.60;99.90
31765;DHT22;18338;53.240;8.798;2023-11-19T13:15:47;12.60;99.90
31765;DHT22;18338;53.240;8.798;2023-11-19T13:18:16;12.50;99.90
31765;DHT22;18338;53.240;8.798;2023-11-19T13:20:43;12.60;99.90
31765;DHT22;18338;53.240;8.798;2023-11-19T13:23:10;12.60;99.90
31765;DHT22;18338;53.240;8.798;2023-11-19T13:25:37;12.50;99.90
31765;DHT22;18338;53.240;8.798;2023-11-19T13:28:03;12.40;99.90
31765;DHT22;18338;53.240;8.798;2023-11-19T13:30:30;12.40;99.90
31765;DHT22;18338;53.240;8.798;2023-11-19T13:32:58;12.50;99.90
31765;DHT22;18338;53.240;8.798;2023-11-19T13:35:25;12.80;99.90
31765;DHT22;18338;53.240;8.798;2023-11-19T13:37:54;12.70;99.90
31765;DHT22;18338;53.240;8.798;2023-11-19T13:40:21;12.70;99.90
31765;DHT22;18338;53.240;8.798;2023-11-19T13:42:49;12.70;99.90
31765;DHT22;18338;53.240;8.798;2023-11-19T13:45:16;12.70;99.90
31765;DHT22;18338;53.240;8.798;2023-11-19T13:47:45;12.70;99.90
31765;DHT22;18338;53.240;8.798;2023-11-19T13:50:13;12.60;99.90
31765;DHT22;18338;53.240;8.798;2023-11-19T13:52:42;12.60;99.90
31765;DHT22;18338;53.240;8.798;2023-11-19T13:55:10;12.70;99.90
31765;DHT22;18338;53.240;8.798;2023-11-19T13:57:38;12.70;99.90
31765;DHT22;18338;53.240;8.798;2023-11-19T14:00:09;12.70;99.90
31765;DHT22;18338;53.240;8.798;2023-11-19T14:02:41;12.60;99.90
31765;DHT22;18338;53.240;8.798;2023-11-19T14:05:09;12.60;99.90
31765;DHT22;18338;53.240;8.798;2023-11-19T14:07:37;12.40;99.90
31765;DHT22;18338;53.240;8.798;2023-11-19T14:10:05;12.40;99.90
31765;DHT22;18338;53.240;8.798;2023-11-19T14:12:33;12.30;99.90
31765;DHT22;18338;53.240;8.798;2023-11-19T14:14:59;12.30;99.90
31765;DHT22;18338;53.240;8.798;2023-11-19T14:17:26;12.30;99.90
31765;DHT22;18338;53.240;8.798;2023-11-19T14:19:53;12.30;99.90
31765;DHT22;18338;53.240;8.798;2023-11-19T14:22:20;12.20;99.90
31765;DHT22;18338;53.240;8.798;2023-11-19T14:24:47;12.20;99.90
31765;DHT22;18338;53.240;8.798;2023-11-19T14:27:14;12.20;99.90
31765;DHT22;18338;53.240;8.798;2023-11-19T14:29:41;12.20;99.90
31765;DHT22;18338;53.240;8.798;2023-11-19T14:32:07;12.10;99.90
31765;DHT22;18338;53.240;8.798;2023-11-19T14:34:34;12.10;99.90
31765;DHT22;18338;53.240;8.798;2023-11-19T14:37:01;12.10;99.90
31765;DHT22;18338;53.240;8.798;2023-11-19T14:39:28;12.10;99.90
31765;DHT22;18338;53.240;8.798;2023-11-19T14:41:57;12.10;99.90
31765;DHT22;18338;53.240;8.798;2023-11-19T14:44:27;12.10;99.90
31765;DHT22;18338;53.240;8.798;2023-11-19T14:46:55;12.10;99.90
31765;DHT22;18338;53.240;8.798;2023-11-19T14:49:22;12.10;99.90
31765;DHT22;18338;53.240;8.798;2023-11-19T14:51:51;12.10;99.90
31765;DHT22;18338;53.240;8.798;2023-11-19T14:54:17;12.10;99.90
31765;DHT22;18338;53.240;8.798;2023-11-19T14:56:44;12.10;99.90
31765;DHT22;18338;53.240;8.798;2023-11-19T14:59:11;12.10;99.90
31765;DHT22;18338;53.240;8.798;2023-11-19T15:01:37;12.00;99.90
31765;DHT22;18338;53.240;8.798;2023-11-19T15:04:05;12.00;99.90
31765;DHT22;18338;53.240;8.798;2023-11-19T15:06:32;12.10;99.90
31765;DHT22;18338;53.240;8.798;2023-11-19T15:09:00;12.00;99.90
31765;DHT22;18338;53.240;8.798;2023-11-19T15:11:27;11.90;99.90
31765;DHT22;18338;53.240;8.798;2023-11-19T15:13:54;11.80;99.90
31765;DHT22;18338;53.240;8.798;2023-11-19T15:16:21;11.80;99.90
31765;DHT22;18338;53.240;8.798;2023-11-19T15:18:58;11.70;99.90
31765;DHT22;18338;53.240;8.798;2023-11-19T15:21:31;11.60;99.90
31765;DHT22;18338;53.240;8.798;2023-11-19T15:23:59;11.60;99.90
31765;DHT22;18338;53.240;8.798;2023-11-19T15:26:26;11.60;99.90
31765;DHT22;18338;53.240;8.798;2023-11-19T15:28:52;11.60;99.90
31765;DHT22;18338;53.240;8.798;2023-11-19T15:31:24;11.60;99.90
31765;DHT22;18338;53.240;8.798;2023-11-19T15:33:51;11.60;99.90
31765;DHT22;18338;53.240;8.798;2023-11-19T15:36:18;11.50;99.90
31765;DHT22;18338;53.240;8.798;2023-11-19T15:38:45;11.50;99.90
31765;DHT22;18338;53.240;8.798;2023-11-19T15:41:14;11.40;99.90
31765;DHT22;18338;53.240;8.798;2023-11-19T15:43:41;11.40;99.90
31765;DHT22;18338;53.240;8.798;2023-11-19T15:46:09;11.40;99.90
31765;DHT22;18338;53.240;8.798;2023-11-19T15:48:36;11.40;99.90
31765;DHT22;18338;53.240;8.798;2023-11-19T15:51:03;11.30;99.90
31765;DHT22;18338;53.240;8.798;2023-11-19T15:53:30;11.40;99.90
31765;DHT22;18338;53.240;8.798;2023-11-19T15:55:58;11.40;99.90
31765;DHT22;18338;53.240;8.798;2023-11-19T15:58:25;11.30;99.90
31765;DHT22;18338;53.240;8.798;2023-11-19T16:00:52;11.40;99.90